Latest Weather Observations for Murrurundi Gap

IDN60801

Issued at 5:05 pm EDT Thursday 5 March 2015 (issued every 30 minutes, with the page automatically refreshed every 10 minutes)

About weather observations | Map of weather stations | Latest weather observations for NSW | Other Formats
Station Details ID: 061392 Name: MURRURUNDI GAP AWS Lat: -31.74 Lon: 150.79 Height: 729.4 m
Data from the previous 72 hours. | See also: Recent months for locations in New South Wales
Date/Time
EDT
Temp
°C
App
Temp
°C
Dew
Point
Rel
Hum
%
Delta-T
°C
Wind Press
QNH
hPa
Press
MSL
hPa
Rain
since 9 am
mm
Dir
 
Spd
km/h
Gust
km/h
Spd
kts
Gust
kts
05/05:00pm 26.3 20.4 -2.4 15 13.3 WSW 19 30 10 16 1010.0 1006.7 0.0
05/04:30pm 27.3 20.4 -5.7 11 14.5 W 22 37 12 20 1010.0 1006.7 0.0
05/04:00pm 27.1 20.7 -4.7 12 14.2 W 20 35 11 19 1010.0 1006.7 0.0
05/03:30pm 26.7 19.6 1.2 19 12.6 W 28 43 15 23 1010.1 1006.8 0.0
05/03:00pm 27.0 19.8 0.7 18 12.9 WNW 28 43 15 23 1010.3 1007.0 0.0
05/02:30pm 27.4 20.9 0.2 17 13.3 W 24 39 13 21 1010.5 1007.3 0.0
05/02:00pm 27.4 21.9 1.8 19 12.9 WNW 20 30 11 16 1010.7 1007.5 0.0
05/01:30pm 25.4 17.8 0.8 20 12.0 WNW 30 43 16 23 1010.9 1007.7 0.0
05/01:10pm 26.0 19.0 2.0 21 12.0 WNW 28 46 15 25 1011.2 1008.0 0.0
05/01:00pm 25.6 17.7 1.0 20 12.0 WNW 32 44 17 24 1011.1 1007.9 0.0
05/12:46pm 25.5 18.2 0.2 19 12.2 WNW 28 46 15 25 1011.5 1008.2 0.0
05/12:30pm 25.7 18.0 -0.4 18 12.4 W 30 43 16 23 1011.5 1008.2 0.0
05/12:00pm 25.3 17.7 -2.3 16 12.7 WNW 28 39 15 21 1011.6 1008.3 0.0
05/11:34am 24.5 16.7 -3.8 15 12.5 NW 28 46 15 25 1011.7 1008.4 0.0
05/11:30am 24.9 17.9 -3.5 15 12.7 NW 24 37 13 20 1011.8 1008.6 0.0
05/11:04am 24.3 16.3 -5.8 13 12.9 WNW 28 46 15 25 1011.8 1008.6 0.0
05/11:00am 23.8 15.8 -6.2 13 12.7 WNW 28 39 15 21 1011.8 1008.6 0.0
05/10:30am 24.1 17.4 -4.1 15 12.4 WNW 22 32 12 17 1011.9 1008.7 0.0
05/10:00am 23.4 16.8 -3.0 17 11.8 W 22 37 12 20 1012.0 1008.8 0.0
05/09:30am 22.5 16.9 1.5 25 10.1 W 20 32 11 17 1012.1 1008.9 0.0
05/09:00am 23.1 17.2 4.1 29 9.7 W 24 35 13 19 1011.7 1008.4 0.0
05/08:30am 22.6 18.9 4.2 30 9.3 WNW 13 32 7 17 1011.7 1008.4 0.0
05/08:03am 22.1 19.1 4.2 31 9.1 WNW 9 17 5 9 1011.5 1008.2 0.0
05/08:00am 22.1 18.6 3.7 30 9.2 WNW 11 17 6 9 1011.5 1008.2 0.0
05/07:39am 22.0 17.0 3.6 30 9.2 WSW 19 30 10 16 1011.1 1007.9 0.0
05/07:30am 21.3 17.8 3.5 31 8.8 W 11 20 6 11 1011.0 1007.8 0.0
05/07:00am 20.9 17.7 5.3 36 8.0 NW 11 13 6 7 1010.4 1007.1 0.0
05/06:30am 21.8 19.0 5.3 34 8.5 NW 9 13 5 7 1010.4 1007.1 0.0
05/06:00am 22.2 18.9 4.7 32 9.0 NW 11 13 6 7 1010.1 1006.8 0.0
05/05:30am 22.8 19.8 3.9 29 9.6 NW 9 13 5 7 1009.9 1006.6 0.0
05/05:00am 23.1 20.5 4.1 29 9.7 WNW 7 11 4 6 1009.9 1006.6 0.0
05/04:30am 23.1 20.6 4.6 30 9.5 NW 7 9 4 5 1010.1 1006.8 0.0
05/04:00am 23.6 22.2 3.5 27 10.2 CALM 0 0 0 0 1010.3 1007.0 0.0
05/03:30am 23.6 20.5 3.5 27 10.1 ESE 9 15 5 8 1010.4 1007.1 0.0
05/03:00am 23.8 21.1 3.7 27 10.2 SE 7 9 4 5 1010.6 1007.4 0.0
05/02:30am 23.9 22.5 3.8 27 10.2 CALM 0 0 0 0 1010.9 1007.7 0.0
05/02:00am 24.5 21.7 3.2 25 10.8 WNW 7 11 4 6 1011.2 1008.0 0.0
05/01:30am 24.5 21.6 4.8 28 10.2 NW 9 13 5 7 1011.5 1008.2 0.0
05/01:00am 24.6 21.7 4.9 28 10.3 WNW 9 13 5 7 1011.8 1008.6 0.0
05/12:30am 24.8 22.5 5.6 29 10.1 WNW 7 11 4 6 1011.9 1008.7 0.0
05/12:00am 25.3 23.1 6.0 29 10.3 WNW 7 15 4 8 1011.9 1008.7 0.0
 
Date/Time
EDT
Temp
°C
App
Temp
°C
Dew
Point
Rel
Hum
%
Delta-T
°C
Wind Press
QNH
hPa
Press
MSL
hPa
Rain
since 9 am
mm
Dir
 
Spd
km/h
Gust
km/h
Spd
kts
Gust
kts
04/11:30pm 25.8 22.4 5.9 28 10.6 W 13 17 7 9 1012.0 1008.8 0.0
04/11:00pm 26.2 23.1 5.7 27 10.9 W 11 17 6 9 1012.1 1008.9 0.0
04/10:30pm 26.7 23.8 6.7 28 10.9 W 11 17 6 9 1012.1 1008.9 0.0
04/10:00pm 27.2 25.7 8.6 31 10.5 W 6 7 3 4 1012.0 1008.8 0.0
04/09:30pm 27.9 27.5 9.7 32 10.5 SW 2 7 1 4 1012.0 1008.8 0.0
04/09:00pm 28.1 26.4 9.9 32 10.5 SSW 9 13 5 7 1011.8 1008.6 0.0
04/08:35pm 28.7 27.0 11.3 34 10.3 SW 11 17 6 9 1011.6 1008.3 0.0
04/08:30pm 28.9 27.0 11.9 35 10.2 SW 13 20 7 11 1011.5 1008.2 0.0
04/08:17pm 28.6 28.1 12.5 37 9.7 SW 7 11 4 6 1011.4 1008.1 0.0
04/08:00pm 28.7 28.5 13.0 38 9.6 WSW 6 7 3 4 1011.2 1008.0 0.0
04/07:30pm 29.7 28.2 13.0 35 10.2 W 13 20 7 11 1011.0 1007.8 0.0
04/07:00pm 30.5 28.2 12.9 34 10.8 WNW 17 24 9 13 1011.0 1007.8 0.0
04/06:30pm 30.6 26.4 12.5 33 11.0 WNW 26 35 14 19 1011.0 1007.8 0.0
04/06:00pm 31.3 26.0 12.6 31 11.4 WNW 32 43 17 23 1010.8 1007.6 0.0
04/05:30pm 31.4 26.0 12.7 32 11.4 WNW 33 52 18 28 1010.8 1007.6 0.0
04/05:05pm 31.2 25.3 12.5 31 11.4 NW 35 54 19 29 1010.9 1007.7 0.0
04/05:00pm 31.3 24.9 13.1 33 11.2 NW 39 54 21 29 1010.8 1007.6 0.0
04/04:30pm 30.8 25.1 13.1 34 10.9 NW 35 48 19 26 1011.0 1007.8 0.0
04/04:00pm 30.1 25.0 13.8 37 10.1 NW 33 43 18 23 1011.6 1008.3 0.0
04/03:30pm 29.9 23.6 13.6 36 10.0 NW 39 52 21 28 1011.8 1008.6 0.0
04/03:00pm 29.5 23.0 14.1 39 9.6 NW 41 50 22 27 1012.1 1008.9 0.0
04/02:30pm 29.4 20.6 14.4 40 9.3 NW 54 67 29 36 1011.9 1008.7 0.0
04/02:22pm 30.1 22.9 13.8 37 10.1 NW 44 67 24 36 1012.3 1009.1 0.0
04/02:04pm 29.4 22.3 14.0 39 9.5 NW 44 59 24 32 1012.6 1009.4 0.0
04/02:00pm 29.7 22.9 14.3 39 9.6 NW 43 63 23 34 1012.6 1009.4 0.0
04/01:35pm 28.7 21.4 14.5 42 8.8 NW 46 69 25 37 1012.9 1009.6 0.0
04/01:30pm 29.5 22.6 14.5 40 9.4 NW 44 59 24 32 1013.0 1009.8 0.0
04/01:27pm 29.7 22.5 14.7 40 9.4 NW 46 65 25 35 1013.0 1009.8 0.0
04/01:00pm 28.7 22.0 15.2 43 8.5 NW 44 57 24 31 1013.4 1010.2 0.0
04/12:41pm 27.8 20.2 14.8 45 8.1 NW 48 70 26 38 1013.5 1010.3 0.0
04/12:30pm 27.9 20.5 15.2 46 8.0 NW 48 63 26 34 1013.7 1010.5 0.0
04/12:00pm 27.7 20.5 15.7 48 7.6 NW 48 67 26 36 1014.5 1011.3 0.0
04/11:57am 28.2 21.4 15.8 47 7.9 NW 46 65 25 35 1014.6 1011.4 0.0
04/11:30am 27.3 21.4 16.6 52 6.8 NW 43 56 23 30 1015.2 1012.0 0.0
04/11:00am 26.9 21.0 16.8 54 6.5 NW 43 54 23 29 1015.5 1012.4 0.0
04/10:30am 25.4 20.6 16.5 58 5.6 NW 37 50 20 27 1015.9 1012.7 0.0
04/10:00am 24.6 20.1 16.3 60 5.2 WNW 35 46 19 25 1016.0 1012.8 0.0
04/09:30am 23.9 20.7 16.4 63 4.7 NW 28 37 15 20 1016.3 1013.1 0.0
04/09:00am 23.5 21.3 16.8 66 4.2 NW 24 30 13 16 1016.2 1013.0 0.0
04/08:30am 23.2 20.9 16.7 67 4.1 WNW 24 28 13 15 1015.8 1012.6 0.0
04/08:00am 23.2 21.0 17.0 68 3.9 NW 24 32 13 17 1015.4 1012.3 0.0
04/07:30am 22.5 20.5 16.5 69 3.8 NW 22 28 12 15 1015.0 1011.8 0.0
04/07:00am 21.9 20.8 16.4 71 3.4 NW 17 19 9 10 1014.7 1011.5 0.0
04/06:35am 22.5 21.5 16.5 69 3.8 NW 17 20 9 11 1014.4 1011.2 0.0
04/06:30am 22.3 21.7 16.6 70 3.6 NW 15 19 8 10 1014.3 1011.1 0.0
04/06:01am 18.1 17.8 15.5 85 1.6 NNE 11 20 6 11 1014.1 1011.0 0.0
04/06:00am 18.3 18.0 15.4 83 1.8 N 11 20 6 11 1014.1 1011.0 0.0
04/05:59am 18.9 18.3 15.6 81 2.0 N 13 20 7 11 1014.1 1011.0 0.0
04/05:30am 17.4 18.1 17.1 98 0.2 SE 9 15 5 8 1014.0 1010.8 0.0
04/05:11am 17.5 18.1 16.7 95 0.5 SE 9 11 5 6 1013.9 1010.7 0.0
04/05:00am 18.4 19.6 17.4 94 0.6 SE 7 9 4 5 1013.9 1010.7 0.0
04/04:30am 18.6 20.0 17.3 92 0.8 SE 6 11 3 6 1013.9 1010.7 0.0
04/04:00am 18.7 19.4 16.1 85 1.6 ESE 7 9 4 5 1013.9 1010.7 0.0
04/03:30am 19.9 20.6 16.0 78 2.4 ESE 7 11 4 6 1014.1 1011.0 0.0
04/03:00am 23.3 24.0 15.6 62 4.8 NW 6 9 3 5 1014.3 1011.1 0.0
04/02:30am 21.5 23.5 16.9 75 2.9 SE 2 7 1 4 1014.5 1011.3 0.0
04/02:00am 20.4 21.9 15.8 75 2.8 SSE 2 9 1 5 1014.6 1011.4 0.0
04/01:30am 24.7 25.7 14.2 52 6.4 WSW 2 7 1 4 1014.7 1011.5 0.0
04/01:00am 25.5 25.2 14.3 50 6.9 N 9 15 5 8 1014.8 1011.6 0.0
04/12:30am 26.0 26.0 14.1 47 7.3 NNW 7 13 4 7 1015.1 1011.9 0.0
04/12:00am 26.2 25.9 14.3 48 7.3 NNE 9 15 5 8 1015.2 1012.0 0.0
 
Date/Time
EDT
Temp
°C
App
Temp
°C
Dew
Point
Rel
Hum
%
Delta-T
°C
Wind Press
QNH
hPa
Press
MSL
hPa
Rain
since 9 am
mm
Dir
 
Spd
km/h
Gust
km/h
Spd
kts
Gust
kts
03/11:30pm 26.5 24.6 14.3 47 7.5 NNE 17 22 9 12 1015.1 1011.9 0.0
03/11:00pm 26.6 24.6 14.0 46 7.7 NNE 17 24 9 13 1015.3 1012.1 0.0
03/10:30pm 27.0 26.3 14.4 46 7.8 NNE 11 15 6 8 1015.6 1012.5 0.0
03/10:00pm 27.1 25.2 14.1 44 8.0 NNE 17 20 9 11 1015.5 1012.4 0.0
03/09:30pm 27.3 26.1 14.0 44 8.2 N 13 17 7 9 1015.5 1012.4 0.0
03/09:00pm 27.4 26.2 14.1 44 8.2 N 13 15 7 8 1015.3 1012.1 0.0
03/08:30pm 27.6 26.9 14.3 44 8.2 N 11 15 6 8 1015.2 1012.0 0.0
03/08:00pm 27.8 27.0 14.1 43 8.4 N 11 13 6 7 1015.0 1011.8 0.0
03/07:30pm 28.0 27.3 14.3 43 8.5 NNW 11 15 6 8 1014.9 1011.7 0.0
03/07:00pm 28.3 27.9 14.2 42 8.7 NW 9 15 5 8 1014.9 1011.7 0.0
03/06:30pm 28.8 27.7 14.2 40 9.0 NW 13 19 7 10 1014.9 1011.7 0.0
03/06:00pm 28.9 26.9 13.9 39 9.3 NNW 17 22 9 12 1014.8 1011.6 0.0
03/05:30pm 29.7 28.5 13.9 38 9.8 WNW 13 17 7 9 1014.8 1011.6 0.0
03/05:00pm 29.7 26.8 13.9 38 9.8 NW 22 32 12 17 1014.9 1011.7 0.0
03/04:30pm 29.0 26.5 13.6 38 9.5 NW 19 24 10 13 1015.1 1011.9 0.0
03/04:00pm 29.1 26.7 13.7 38 9.5 NW 19 33 10 18 1015.2 1012.0 0.0
03/03:30pm 28.8 27.1 14.6 42 8.9 NW 17 28 9 15 1015.9 1012.7 0.0
03/03:00pm 28.5 24.9 14.3 41 8.8 WNW 26 35 14 19 1016.0 1012.8 0.0
03/02:30pm 28.3 24.8 14.5 43 8.6 NW 26 39 14 21 1016.5 1013.3 0.0
03/02:00pm 27.6 24.1 14.6 45 8.1 WNW 26 35 14 19 1016.8 1013.7 0.0
03/01:30pm 26.7 22.7 14.1 46 7.7 NW 28 41 15 22 1017.0 1013.9 0.0
03/01:00pm 26.2 20.8 14.0 47 7.5 NW 35 48 19 26 1017.3 1014.1 0.0
03/12:30pm 26.9 22.7 13.6 44 8.1 NW 28 39 15 21 1017.8 1014.6 0.0
03/12:00pm 26.4 22.4 14.2 47 7.5 NW 28 35 15 19 1018.2 1015.1 0.0
03/11:30am 25.2 21.1 12.8 46 7.4 WNW 26 37 14 20 1018.7 1015.5 0.0
03/11:00am 24.3 20.4 13.2 50 6.6 NW 26 33 14 18 1018.9 1015.7 0.0
03/10:30am 23.4 19.5 12.1 49 6.6 NW 24 30 13 16 1018.8 1015.6 0.0
03/10:00am 23.3 22.1 12.9 52 6.2 NW 11 20 6 11 1018.9 1015.7 0.0
03/09:30am 21.4 21.6 14.3 64 4.3 NE 6 9 3 5 1018.7 1015.5 0.0
03/09:00am 20.1 21.0 14.0 68 3.6 NNE 2 7 1 4 1018.5 1015.4 0.0
03/08:30am 16.8 15.9 13.7 82 1.8 ESE 11 15 6 8 1018.4 1015.3 0.0
03/08:00am 15.5 14.2 13.7 89 1.0 ESE 13 15 7 8 1018.1 1015.0 0.0
03/07:30am 14.2 13.5 13.2 94 0.6 SE 9 11 5 6 1017.8 1014.6 0.0
03/07:00am 14.1 13.5 11.8 86 1.3 WNW 6 9 3 5 1017.4 1014.2 0.0
03/06:30am 15.2 15.5 12.3 83 1.6 NW 2 7 1 4 1016.8 1013.7 0.0
03/06:00am 15.0 15.8 12.7 86 1.3 CALM 0 6 0 3 1016.6 1013.5 0.0
03/05:30am 14.4 13.6 12.8 90 0.9 SE 9 13 5 7 1016.3 1013.1 0.0
03/05:00am 14.4 12.5 13.0 91 0.8 ESE 15 19 8 10 1016.2 1013.0 0.0
03/04:30am 14.0 11.3 12.9 93 0.6 ESE 19 20 10 11 1016.1 1012.9 0.0
03/04:00am 14.1 11.6 13.6 97 0.3 ESE 19 20 10 11 1016.2 1013.0 0.0
03/03:30am 13.5 10.3 13.2 98 0.2 ESE 22 24 12 13 1016.5 1013.3 0.0
03/03:00am 13.8 10.2 13.2 96 0.3 SE 24 28 13 15 1016.5 1013.3 0.0
03/02:30am 13.9 10.5 13.6 98 0.2 SE 24 26 13 14 1016.8 1013.7 0.0
03/02:00am 14.6 10.8 13.6 94 0.6 SE 26 28 14 15 1017.3 1014.1 0.0
03/01:30am 14.2 10.8 13.6 96 0.3 SE 24 28 13 15 1017.9 1014.8 0.0
03/01:00am 14.3 10.9 13.8 97 0.3 SE 24 28 13 15 1018.0 1014.9 0.0
03/12:30am 14.2 10.8 13.7 97 0.3 ESE 24 26 13 14 1018.1 1015.0 0.0
03/12:00am 14.4 10.7 13.8 96 0.3 ESE 26 30 14 16 1018.1 1015.0 0.0
 
Date/Time
EDT
Temp
°C
App
Temp
°C
Dew
Point
Rel
Hum
%
Delta-T
°C
Wind Press
QNH
hPa
Press
MSL
hPa
Rain
since 9 am
mm
Dir
 
Spd
km/h
Gust
km/h
Spd
kts
Gust
kts
02/11:30pm 15.1 10.2 13.8 92 0.8 SE 32 35 17 19 1018.1 1015.0 0.0
02/11:00pm 15.2 10.3 14.2 94 0.6 SE 33 37 18 20 1018.3 1015.2 0.0
02/10:30pm 15.7 10.8 14.2 91 0.9 SE 33 39 18 21 1018.3 1015.2 0.0
02/10:00pm 15.9 10.6 14.1 89 1.1 SE 35 43 19 23 1018.3 1015.2 0.0
02/09:30pm 16.1 10.5 14.5 90 0.9 SE 37 43 20 23 1018.3 1015.2 0.0
02/09:00pm 16.2 11.3 14.4 89 1.1 SSE 33 41 18 22 1018.1 1015.0 0.0
02/08:30pm 16.5 11.2 14.3 87 1.3 SSE 35 44 19 24 1017.7 1014.5 0.0
02/08:00pm 17.0 12.4 14.6 86 1.4 SSE 32 41 17 22 1017.3 1014.1 0.0
02/07:30pm 17.6 13.4 14.7 83 1.7 SSE 30 39 16 21 1016.7 1013.6 0.0
02/07:00pm 18.6 14.0 14.5 77 2.5 SSE 32 43 17 23 1016.5 1013.3 0.0
02/06:30pm 19.4 14.7 14.4 73 3.0 SSE 32 41 17 22 1016.1 1012.9 0.0
02/06:00pm 20.2 15.7 14.8 71 3.3 SSE 32 43 17 23 1015.9 1012.7 0.0
02/05:30pm 20.8 16.1 14.9 69 3.6 SSE 33 44 18 24 1015.8 1012.6 0.0

Other Formats:

Comma delimited format used in spreadsheet applications
http://www.bom.gov.au/fwo/IDN60801/IDN60801.95747.axf

JavaScript Object Notation format (JSON) in row-major order
http://www.bom.gov.au/fwo/IDN60801/IDN60801.95747.json